Time;durP1;ratioP1;P1;durP2;ratioP2;P2;SDS_P1;SDS_P2;PMS_P1;PMS_P2;Temp;Humidity;BMP_temperature;BMP_pressure;BME280_temperature;BME280_humidity;BME280_pressure;Samples;Min_cycle;Max_cycle;Signal;HPM_P1;HPM_P2
2021/10/10 00:00:31;;;;;;;;;51.25;42.50;;;;;16.02;59.47;102058.53;2091812;28;47215;-49
2021/10/10 00:01:31;;;;;;;;;39.50;32.00;;;;;16.03;59.82;102054.06;2091558;28;48100;-52
2021/10/10 00:02:32;;;;;;;;;51.75;43.25;;;;;16.01;59.76;102061.25;2083310;28;47228;-50
2021/10/10 00:03:32;;;;;;;;;46.25;38.00;;;;;16.01;59.97;102062.13;2091820;28;46284;-49
2021/10/10 00:04:33;;;;;;;;;52.00;43.00;;;;;16.01;59.40;102056.78;2092180;28;48401;-47
2021/10/10 00:05:34;;;;;;;;;53.00;42.75;;;;;16.02;60.11;102066.56;2092272;28;45376;-51
2021/10/10 00:06:35;;;;;;;;;53.00;43.00;;;;;16.00;59.44;102054.13;2091892;28;47110;-47
2021/10/10 00:07:35;;;;;;;;;51.60;42.00;;;;;16.00;59.40;102057.66;2091450;28;47320;-50
2021/10/10 00:08:36;;;;;;;;;49.75;42.00;;;;;15.98;59.74;102056.81;2091667;28;46098;-49
2021/10/10 00:09:36;;;;;;;;;50.75;43.00;;;;;15.98;60.03;102059.50;2091244;28;47720;-49
2021/10/10 00:10:37;;;;;;;;;47.50;39.50;;;;;15.96;60.00;102061.34;2091076;28;45412;-51
2021/10/10 00:11:38;;;;;;;;;50.00;41.75;;;;;15.97;59.73;102056.88;2088812;28;45389;-46
2021/10/10 00:12:39;;;;;;;;;51.25;41.50;;;;;15.94;59.95;102055.16;2097221;27;47937;-47
2021/10/10 00:13:39;;;;;;;;;51.00;41.20;;;;;15.93;59.80;102056.06;2092206;28;48312;-49
2021/10/10 00:14:40;;;;;;;;;48.75;41.75;;;;;15.93;60.06;102053.38;2092211;28;47278;-51
2021/10/10 00:15:41;;;;;;;;;48.50;39.75;;;;;15.92;59.94;102054.31;2091575;28;47362;-49
2021/10/10 00:16:41;;;;;;;;;46.75;38.75;;;;;15.91;60.28;102051.66;2083357;28;48436;-47
2021/10/10 00:17:42;;;;;;;;;51.00;41.75;;;;;15.91;60.17;102049.00;2091490;28;45007;-48
2021/10/10 00:18:42;;;;;;;;;49.40;40.40;;;;;15.89;59.61;102054.38;2091721;28;47187;-46
2021/10/10 00:19:43;;;;;;;;;51.00;42.25;;;;;15.88;60.16;102053.50;2092256;28;47552;-50
2021/10/10 00:20:43;;;;;;;;;50.25;42.25;;;;;15.88;59.88;102055.31;2091563;28;47374;-50
2021/10/10 00:21:44;;;;;;;;;48.50;39.75;;;;;15.86;60.02;102055.31;2091310;28;48319;-47
2021/10/10 00:22:44;;;;;;;;;55.50;45.25;;;;;15.86;60.27;102059.78;2092119;28;46506;-49
2021/10/10 00:23:45;;;;;;;;;49.00;40.75;;;;;15.84;59.92;102053.59;2092121;28;47087;-47
2021/10/10 00:24:45;;;;;;;;;51.50;43.25;;;;;15.83;60.21;102059.84;2091434;28;48521;-50
2021/10/10 00:25:46;;;;;;;;;47.25;40.25;;;;;15.81;60.49;102053.66;2091348;28;48064;-47
2021/10/10 00:26:46;;;;;;;;;50.50;41.25;;;;;15.81;60.11;102056.34;2092066;28;48285;-46
2021/10/10 00:27:47;;;;;;;;;52.25;43.00;;;;;15.79;60.23;102052.81;2091433;28;46924;-46
2021/10/10 00:28:47;;;;;;;;;53.25;42.00;;;;;15.79;60.59;102052.81;2091759;28;46240;-51
2021/10/10 00:29:49;;;;;;;;;52.00;42.50;;;;;15.79;60.31;102058.16;2091508;28;48088;-46
2021/10/10 00:30:50;;;;;;;;;54.00;42.60;;;;;15.78;60.13;102056.41;2091642;28;47553;-49
2021/10/10 00:31:50;;;;;;;;;49.60;42.40;;;;;15.78;60.31;102051.06;2091280;28;47406;-47
2021/10/10 00:32:51;;;;;;;;;48.75;41.75;;;;;15.78;60.65;102051.94;2092358;28;47130;-51
2021/10/10 00:33:51;;;;;;;;;46.75;38.50;;;;;15.77;60.52;102060.88;2091914;28;48191;-49
2021/10/10 00:34:52;;;;;;;;;50.75;42.50;;;;;15.77;60.23;102060.00;2092219;28;47220;-46
2021/10/10 00:35:52;;;;;;;;;50.75;42.75;;;;;15.77;60.36;102058.22;2091917;28;47325;-52
2021/10/10 00:36:53;;;;;;;;;50.25;42.00;;;;;15.77;60.33;102057.31;2091910;28;48055;-52
2021/10/10 00:37:54;;;;;;;;;51.50;41.50;;;;;15.76;60.40;102056.44;2091023;28;47371;-49
2021/10/10 00:38:54;;;;;;;;;50.25;41.50;;;;;15.76;60.45;102058.25;2091684;28;46918;-49
2021/10/10 00:39:55;;;;;;;;;49.50;40.50;;;;;15.76;60.89;102055.56;2091578;28;46536;-50
2021/10/10 00:40:55;;;;;;;;;46.50;39.00;;;;;15.76;60.82;102058.25;2092208;28;47218;-50
2021/10/10 00:41:56;;;;;;;;;50.75;42.25;;;;;15.75;60.73;102061.81;2093115;28;47003;-50
2021/10/10 00:42:56;;;;;;;;;53.25;43.00;;;;;15.74;60.58;102058.25;2092219;28;48337;-51
2021/10/10 00:43:57;;;;;;;;;49.25;41.25;;;;;15.74;60.52;102060.03;2091156;28;47254;-49
2021/10/10 00:44:57;;;;;;;;;50.00;40.75;;;;;15.73;60.59;102058.28;2091807;28;45401;-50
2021/10/10 00:45:58;;;;;;;;;53.50;43.25;;;;;15.73;60.74;102055.59;2091665;28;47603;-51
2021/10/10 00:46:59;;;;;;;;;52.00;42.50;;;;;15.70;60.48;102055.69;2091414;28;47323;-50
2021/10/10 00:48:01;;;;;;;;;49.80;41.20;;;;;15.70;60.46;102061.03;2085595;28;48874;-47
2021/10/10 00:49:01;;;;;;;;;51.40;41.80;;;;;15.69;60.28;102052.13;2089928;28;47368;-47
2021/10/10 00:50:04;;;;;;;;;51.00;42.00;;;;;15.69;60.67;102067.31;2082570;28;48202;-49
2021/10/10 00:51:04;;;;;;;;;51.80;42.60;;;;;15.67;60.73;102051.28;2083006;28;47089;-46
2021/10/10 00:52:06;;;;;;;;;49.50;41.50;;;;;15.65;60.67;102053.13;2090973;28;46988;-46
2021/10/10 00:53:08;;;;;;;;;50.40;40.60;;;;;15.65;60.89;102055.78;2091062;28;48424;-48
2021/10/10 00:54:10;;;;;;;;;53.40;42.80;;;;;15.65;60.86;102054.91;2089759;28;45310;-47
2021/10/10 00:55:12;;;;;;;;;53.60;44.00;;;;;15.64;60.74;102054.03;2091811;28;46831;-50
2021/10/10 00:56:12;;;;;;;;;53.20;42.20;;;;;15.62;60.59;102055.84;2090565;28;47381;-48
2021/10/10 00:57:14;;;;;;;;;53.25;42.25;;;;;15.63;60.60;102051.41;2091687;28;47126;-49
2021/10/10 00:58:20;;;;;;;;;50.80;42.60;;;;;15.62;60.75;102055.84;2091255;28;47317;-50
2021/10/10 00:59:22;;;;;;;;;47.60;39.60;;;;;15.60;60.64;102050.53;2091453;28;47503;-52
2021/10/10 01:00:23;;;;;;;;;52.00;43.20;;;;;15.61;60.75;102051.41;2091918;28;48379;-48
2021/10/10 01:01:24;;;;;;;;;52.25;44.00;;;;;15.60;60.73;102050.53;2091160;28;47599;-48
2021/10/10 01:02:25;;;;;;;;;50.20;41.00;;;;;15.58;60.96;102054.13;2091211;28;47827;-48
2021/10/10 01:03:25;;;;;;;;;47.75;40.25;;;;;15.58;60.93;102056.78;2091141;28;47013;-46
2021/10/10 01:04:26;;;;;;;;;50.50;41.25;;;;;15.57;60.89;102055.03;2091280;28;47346;-48
2021/10/10 01:05:26;;;;;;;;;55.25;44.25;;;;;15.58;60.87;102056.78;2091575;28;47244;-50
2021/10/10 01:06:27;;;;;;;;;55.75;43.50;;;;;15.55;60.54;102055.06;2091874;28;47271;-50
2021/10/10 01:07:27;;;;;;;;;51.25;42.00;;;;;15.55;60.47;102052.41;2091037;28;47389;-48
2021/10/10 01:08:28;;;;;;;;;51.25;42.25;;;;;15.55;60.63;102055.06;2091415;28;48424;-51
2021/10/10 01:09:28;;;;;;;;;55.50;44.00;;;;;15.55;61.08;102054.19;2091699;28;47088;-49
2021/10/10 01:10:29;;;;;;;;;51.50;42.00;;;;;15.54;60.56;102061.34;2091856;28;48296;-49
2021/10/10 01:11:29;;;;;;;;;49.50;41.00;;;;;15.54;60.75;102055.97;2092115;28;47154;-50
2021/10/10 01:12:31;;;;;;;;;48.00;40.00;;;;;15.53;61.12;102054.22;2102832;27;47259;-50
2021/10/10 01:13:32;;;;;;;;;49.40;42.00;;;;;15.53;60.94;102056.03;2099353;27;46976;-49
2021/10/10 01:14:34;;;;;;;;;50.75;40.75;;;;;15.51;60.82;102047.16;2091900;28;46763;-51
2021/10/10 01:15:35;;;;;;;;;53.00;42.60;;;;;15.52;61.19;102060.50;2091479;28;47325;-47
2021/10/10 01:16:35;;;;;;;;;48.20;39.80;;;;;15.49;60.75;102057.84;2091297;28;47900;-48
2021/10/10 01:17:37;;;;;;;;;52.50;43.75;;;;;15.49;60.78;102054.31;2082445;28;47322;-48
2021/10/10 01:18:37;;;;;;;;;48.20;40.20;;;;;15.48;60.92;102056.09;2091434;28;47274;-50
2021/10/10 01:19:38;;;;;;;;;51.00;41.00;;;;;15.47;60.96;102054.34;2091084;28;46201;-51
2021/10/10 01:20:46;;;;;;;;;52.80;43.60;;;;;15.46;60.92;102057.94;2091257;28;48256;-51
2021/10/10 01:21:47;;;;;;;;;47.80;39.20;;;;;15.46;60.84;102059.72;2091361;28;47606;-49
2021/10/10 01:22:47;;;;;;;;;52.25;42.25;;;;;15.47;60.82;102058.81;2091785;28;48068;-51
2021/10/10 01:23:48;;;;;;;;;48.50;40.25;;;;;15.45;60.60;102053.50;2091560;28;47903;-50
2021/10/10 01:24:49;;;;;;;;;51.75;42.75;;;;;15.44;60.74;102057.09;2091905;28;47352;-50
2021/10/10 01:25:50;;;;;;;;;52.25;42.50;;;;;15.45;61.11;102052.63;2091305;28;47155;-49
2021/10/10 01:26:51;;;;;;;;;49.60;41.60;;;;;15.44;61.11;102050.84;2091105;28;48160;-50
2021/10/10 01:27:51;;;;;;;;;53.25;44.25;;;;;15.41;61.05;102051.81;2091020;28;47155;-50
2021/10/10 01:28:51;;;;;;;;;49.25;41.00;;;;;15.41;61.04;102050.91;2091159;28;47368;-49
2021/10/10 01:29:52;;;;;;;;;50.00;41.50;;;;;15.39;61.26;102042.94;2082652;28;47928;-51
2021/10/10 01:30:53;;;;;;;;;49.00;41.50;;;;;15.38;60.73;102051.00;2091219;28;48314;-49
2021/10/10 01:31:54;;;;;;;;;47.25;39.25;;;;;15.37;60.96;102047.41;2090752;28;47084;-52
2021/10/10 01:32:56;;;;;;;;;51.00;43.25;;;;;15.37;61.17;102047.41;2091196;28;48097;-54
2021/10/10 01:33:56;;;;;;;;;52.00;43.00;;;;;15.35;60.86;102043.88;2091363;28;47486;-49
2021/10/10 01:34:57;;;;;;;;;51.00;42.50;;;;;15.34;61.06;102044.78;2091679;28;48065;-49
2021/10/10 01:35:57;;;;;;;;;49.50;41.50;;;;;15.32;61.06;102044.84;2091508;28;47355;-47
2021/10/10 01:36:58;;;;;;;;;53.50;42.50;;;;;15.32;60.89;102051.97;2091462;28;47590;-48
2021/10/10 01:37:58;;;;;;;;;51.75;42.75;;;;;15.31;60.99;102047.53;2091333;28;47276;-51
2021/10/10 01:38:59;;;;;;;;;54.25;43.00;;;;;15.29;60.77;102052.03;2091704;28;47228;-50
2021/10/10 01:39:59;;;;;;;;;52.00;43.50;;;;;15.28;60.69;102053.84;2091427;28;47386;-51
2021/10/10 01:41:00;;;;;;;;;50.75;40.75;;;;;15.27;61.08;102054.75;2091604;28;48138;-52
2021/10/10 01:42:00;;;;;;;;;51.00;40.75;;;;;15.26;61.50;102049.44;2090806;28;46338;-48
2021/10/10 01:43:05;;;;;;;;;50.50;41.25;;;;;15.25;61.16;102048.56;2089632;28;48562;-48
2021/10/10 01:44:12;;;;;;;;;52.40;42.00;;;;;15.24;61.41;102044.09;2090651;28;47138;-47
2021/10/10 01:45:14;;;;;;;;;49.80;40.80;;;;;15.24;60.91;102051.25;2097916;28;45687;-50
2021/10/10 01:46:15;;;;;;;;;50.60;40.40;;;;;15.22;61.53;102043.25;2091475;27;48188;-50
2021/10/10 01:47:15;;;;;;;;;54.50;44.25;;;;;15.22;61.41;102039.69;2091546;28;47464;-50
2021/10/10 01:48:16;;;;;;;;;49.50;41.50;;;;;15.20;61.38;102039.72;2091822;28;48434;-47
2021/10/10 01:49:16;;;;;;;;;49.75;42.25;;;;;15.19;61.49;102032.63;2090634;28;46117;-50
2021/10/10 01:50:17;;;;;;;;;52.00;43.25;;;;;15.18;61.59;102036.22;2091529;28;48210;-50
2021/10/10 01:51:17;;;;;;;;;50.50;43.00;;;;;15.18;60.87;102035.31;2091285;28;47168;-47
2021/10/10 01:52:18;;;;;;;;;48.75;41.00;;;;;15.17;61.34;102036.25;2091772;28;47470;-48
2021/10/10 01:53:18;;;;;;;;;50.00;42.25;;;;;15.16;61.07;102035.38;2091470;28;47085;-50
2021/10/10 01:54:19;;;;;;;;;49.50;41.75;;;;;15.16;61.54;102031.81;2091084;28;47429;-52
2021/10/10 01:55:19;;;;;;;;;50.75;42.50;;;;;15.14;61.03;102030.97;2082599;28;47213;-50
2021/10/10 01:56:20;;;;;;;;;52.50;42.50;;;;;15.13;61.53;102031.88;2091093;28;48413;-51
2021/10/10 01:57:20;;;;;;;;;50.00;41.50;;;;;15.11;61.17;102039.03;2086724;28;47169;-49
2021/10/10 01:58:21;;;;;;;;;51.50;42.00;;;;;15.12;60.98;102043.44;2091166;28;47303;-51
2021/10/10 01:59:21;;;;;;;;;51.75;42.00;;;;;15.10;61.12;102022.09;2090898;28;47946;-52
2021/10/10 02:00:22;;;;;;;;;47.50;39.75;;;;;15.10;61.69;102030.13;2091802;28;47337;-49
2021/10/10 02:01:23;;;;;;;;;50.20;41.80;;;;;15.09;61.18;102022.13;2091512;28;46236;-52
2021/10/10 02:02:23;;;;;;;;;47.75;40.00;;;;;15.09;61.58;102028.34;2091681;28;45446;-51
2021/10/10 02:03:24;;;;;;;;;49.75;41.75;;;;;15.08;61.18;102031.94;2091135;28;48543;-47
2021/10/10 02:04:24;;;;;;;;;50.00;41.25;;;;;15.09;61.49;102027.47;2091750;28;48215;-51
2021/10/10 02:05:25;;;;;;;;;55.00;42.75;;;;;15.09;61.37;102022.13;2090841;28;47084;-52
2021/10/10 02:06:26;;;;;;;;;52.00;42.25;;;;;15.08;61.67;102033.75;2090811;28;47822;-50
2021/10/10 02:07:27;;;;;;;;;52.50;43.50;;;;;15.07;61.52;102032.84;2091236;28;47256;-52
2021/10/10 02:08:27;;;;;;;;;46.00;38.50;;;;;15.07;61.35;102023.97;2091625;28;47152;-49
2021/10/10 02:09:27;;;;;;;;;52.50;43.00;;;;;15.06;61.33;102030.22;2091538;28;46139;-47
2021/10/10 02:10:28;;;;;;;;;50.25;39.75;;;;;15.05;61.35;102029.34;2091676;28;47218;-49
2021/10/10 02:11:29;;;;;;;;;52.25;43.50;;;;;15.04;61.54;102030.25;2092047;28;47326;-52
2021/10/10 02:12:29;;;;;;;;;49.00;41.50;;;;;15.04;61.59;102026.69;2087745;28;45918;-49
2021/10/10 02:13:30;;;;;;;;;50.75;41.75;;;;;15.04;61.60;102027.59;2083840;28;46267;-53
2021/10/10 02:14:30;;;;;;;;;48.50;40.75;;;;;15.02;61.66;102027.63;2090928;28;47043;-50
2021/10/10 02:15:30;;;;;;;;;51.75;43.50;;;;;15.02;61.25;102029.41;2087277;28;46837;-51
2021/10/10 02:16:31;;;;;;;;;54.00;43.00;;;;;15.02;61.24;102032.06;2091147;28;47142;-52
2021/10/10 02:17:32;;;;;;;;;49.25;41.75;;;;;14.99;61.50;102025.00;2091497;28;48236;-51
2021/10/10 02:18:33;;;;;;;;;53.50;44.00;;;;;14.99;61.66;102027.69;2090964;28;45349;-50
2021/10/10 02:19:33;;;;;;;;;50.25;42.25;;;;;14.98;61.41;102025.88;2090840;28;47072;-50
2021/10/10 02:20:34;;;;;;;;;51.00;42.50;;;;;14.97;61.35;102024.13;2091529;28;46083;-52
2021/10/10 02:21:34;;;;;;;;;49.75;41.00;;;;;14.97;61.25;102026.78;2091183;28;48126;-51
2021/10/10 02:22:35;;;;;;;;;50.50;42.00;;;;;14.97;61.61;102023.25;2091527;28;46462;-48
2021/10/10 02:23:36;;;;;;;;;49.20;41.00;;;;;14.96;61.36;102032.19;2091167;28;47266;-47
2021/10/10 02:24:36;;;;;;;;;46.75;39.25;;;;;14.95;61.47;102030.41;2091523;28;48154;-47
2021/10/10 02:25:37;;;;;;;;;49.25;41.25;;;;;14.94;61.20;102028.66;2091367;28;47389;-48
2021/10/10 02:26:37;;;;;;;;;49.25;40.75;;;;;14.93;61.41;102027.78;2090701;28;47778;-50
2021/10/10 02:27:38;;;;;;;;;51.00;42.50;;;;;14.92;61.36;102019.78;2090628;28;47211;-50
2021/10/10 02:28:38;;;;;;;;;47.75;39.25;;;;;14.92;61.67;102027.81;2090646;28;45422;-48
2021/10/10 02:29:39;;;;;;;;;47.00;39.25;;;;;14.91;61.72;102031.41;2090659;28;48304;-52
2021/10/10 02:30:39;;;;;;;;;50.50;42.00;;;;;14.90;61.79;102030.50;2090708;28;48666;-52
2021/10/10 02:31:42;;;;;;;;;48.00;41.00;;;;;14.90;61.67;102024.28;2091340;28;47236;-50
2021/10/10 02:32:43;;;;;;;;;51.60;43.60;;;;;14.89;61.66;102028.75;2091274;28;48193;-48
2021/10/10 02:33:43;;;;;;;;;50.25;40.50;;;;;14.87;61.74;102027.03;2090589;28;48543;-49
2021/10/10 02:34:44;;;;;;;;;50.75;41.50;;;;;14.86;61.42;102031.47;2090620;28;48776;-50
2021/10/10 02:35:45;;;;;;;;;48.25;41.50;;;;;14.86;61.52;102033.25;2091360;28;47443;-49
2021/10/10 02:36:45;;;;;;;;;50.00;41.50;;;;;14.83;61.82;102034.19;2091071;28;47134;-47
2021/10/10 02:37:46;;;;;;;;;51.50;41.00;;;;;14.83;61.75;102034.19;2091091;28;46641;-51
2021/10/10 02:38:47;;;;;;;;;51.25;42.25;;;;;14.82;61.43;102031.56;2090567;28;45373;-51
2021/10/10 02:39:47;;;;;;;;;50.50;41.75;;;;;14.81;61.82;102030.69;2090616;28;47520;-49
2021/10/10 02:40:48;;;;;;;;;53.25;43.75;;;;;14.81;61.91;102035.16;2091291;28;47091;-48
2021/10/10 02:41:48;;;;;;;;;49.75;41.25;;;;;14.79;61.53;102037.84;2091051;28;46070;-48
2021/10/10 02:42:49;;;;;;;;;51.75;43.25;;;;;14.80;61.61;102036.06;2091082;28;47370;-50
2021/10/10 02:43:49;;;;;;;;;50.00;42.25;;;;;14.80;61.44;102038.72;2091141;28;47138;-47
2021/10/10 02:44:50;;;;;;;;;50.00;41.75;;;;;14.79;61.50;102036.97;2094396;28;47371;-47
2021/10/10 02:45:50;;;;;;;;;48.75;41.00;;;;;14.79;61.30;102043.19;2093784;28;46964;-51
2021/10/10 02:46:51;;;;;;;;;47.25;40.00;;;;;14.77;61.85;102033.44;2082505;28;45323;-50
2021/10/10 02:47:51;;;;;;;;;49.50;41.00;;;;;14.75;62.00;102032.59;2082111;28;48246;-48
2021/10/10 02:48:52;;;;;;;;;54.75;44.25;;;;;14.73;61.60;102043.28;2090818;28;48451;-51
2021/10/10 02:49:52;;;;;;;;;53.25;45.00;;;;;14.73;61.82;102045.97;2091068;28;47163;-49
2021/10/10 02:50:53;;;;;;;;;51.50;43.75;;;;;14.72;61.80;102038.84;2091296;28;47033;-47
2021/10/10 02:51:53;;;;;;;;;53.25;43.25;;;;;14.72;61.95;102042.41;2090173;28;47198;-50
2021/10/10 02:52:55;;;;;;;;;45.75;39.00;;;;;14.72;61.78;102044.19;2090688;28;47267;-47
2021/10/10 02:53:56;;;;;;;;;52.60;43.60;;;;;14.72;62.17;102044.19;2098776;28;46384;-52
2021/10/10 02:54:57;;;;;;;;;52.00;41.80;;;;;14.71;61.73;102031.75;2099154;28;46146;-48
2021/10/10 02:55:57;;;;;;;;;51.50;41.00;;;;;14.71;61.57;102042.44;2090976;28;46903;-47
2021/10/10 02:56:58;;;;;;;;;51.75;42.75;;;;;14.70;61.57;102036.22;2091179;28;48634;-49
2021/10/10 02:57:58;;;;;;;;;51.50;43.00;;;;;14.70;61.70;102038.88;2090984;28;45674;-50
2021/10/10 02:58:59;;;;;;;;;55.00;43.25;;;;;14.68;61.99;102031.81;2091567;28;45150;-50
2021/10/10 02:59:59;;;;;;;;;49.75;41.75;;;;;14.69;61.85;102038.91;2090502;28;47164;-49
2021/10/10 03:00:59;;;;;;;;;51.00;39.75;;;;;14.68;61.52;102027.34;2091332;28;48400;-48
2021/10/10 03:02:00;;;;;;;;;48.00;39.75;;;;;14.67;61.89;102022.91;2091806;28;46974;-50
2021/10/10 03:03:00;;;;;;;;;52.75;43.00;;;;;14.67;61.75;102040.72;2092056;28;47139;-50
2021/10/10 03:04:01;;;;;;;;;51.00;42.50;;;;;14.65;61.97;102031.88;2092441;28;46262;-51
2021/10/10 03:05:01;;;;;;;;;47.75;40.25;;;;;14.64;61.81;102035.44;2092677;28;48179;-51
2021/10/10 03:06:02;;;;;;;;;53.25;45.00;;;;;14.62;61.84;102029.25;2091729;28;46363;-52
2021/10/10 03:07:03;;;;;;;;;49.75;41.00;;;;;14.61;62.10;102027.47;2091916;28;47198;-49
2021/10/10 03:08:03;;;;;;;;;50.00;42.75;;;;;14.61;61.80;102032.81;2092286;28;48193;-47
2021/10/10 03:09:04;;;;;;;;;49.25;41.00;;;;;14.59;62.08;102030.16;2092565;28;46551;-47
2021/10/10 03:10:05;;;;;;;;;50.75;42.00;;;;;14.60;62.17;102036.41;2092683;28;48462;-50
2021/10/10 03:11:06;;;;;;;;;49.40;41.00;;;;;14.59;62.00;102031.97;2088475;28;46126;-49
2021/10/10 03:12:06;;;;;;;;;46.25;38.75;;;;;14.58;61.87;102025.75;2093087;28;47250;-49
2021/10/10 03:13:06;;;;;;;;;51.75;43.00;;;;;14.59;62.10;102034.63;2092361;28;48052;-51
2021/10/10 03:14:07;;;;;;;;;52.75;42.75;;;;;14.57;61.66;102034.66;2092463;28;47408;-48
2021/10/10 03:15:08;;;;;;;;;45.00;38.00;;;;;14.58;62.21;102024.84;2092378;28;47205;-50
2021/10/10 03:16:08;;;;;;;;;49.50;40.75;;;;;14.57;62.38;102034.66;2092718;28;47115;-48
2021/10/10 03:17:09;;;;;;;;;52.75;42.75;;;;;14.57;61.79;102031.09;2092432;28;48147;-53
2021/10/10 03:18:09;;;;;;;;;50.50;42.50;;;;;14.56;61.96;102032.91;2092669;28;47948;-47
2021/10/10 03:19:10;;;;;;;;;48.75;39.50;;;;;14.56;62.18;102034.69;2092152;28;45307;-51
2021/10/10 03:20:12;;;;;;;;;48.75;38.75;;;;;14.55;62.11;102031.13;2092661;28;47379;-46
2021/10/10 03:21:12;;;;;;;;;51.00;41.20;;;;;14.55;61.92;102033.81;2092082;28;47210;-49
2021/10/10 03:22:13;;;;;;;;;50.75;43.00;;;;;14.55;61.92;102027.59;2092255;28;48135;-49
2021/10/10 03:23:13;;;;;;;;;56.25;44.00;;;;;14.53;62.24;102019.59;2090505;28;47008;-46
2021/10/10 03:24:14;;;;;;;;;47.00;38.00;;;;;14.53;61.96;102032.97;2092454;28;47136;-47
2021/10/10 03:25:14;;;;;;;;;47.00;40.00;;;;;14.53;62.23;102027.63;2092113;28;48251;-50
2021/10/10 03:26:15;;;;;;;;;50.75;39.00;;;;;14.52;61.97;102033.00;2091974;28;45350;-47
2021/10/10 03:27:15;;;;;;;;;49.50;42.50;;;;;14.52;62.23;102033.00;2091450;28;47166;-50
2021/10/10 03:28:16;;;;;;;;;47.75;40.50;;;;;14.51;62.26;102026.78;2092586;28;45565;-49
2021/10/10 03:29:16;;;;;;;;;48.50;39.75;;;;;14.50;61.94;102030.34;2091464;28;47484;-47
2021/10/10 03:30:17;;;;;;;;;50.00;42.50;;;;;14.51;62.20;102031.22;2091881;28;48073;-47
2021/10/10 03:31:17;;;;;;;;;52.75;42.00;;;;;14.50;62.27;102032.13;2092103;28;47160;-45
2021/10/10 03:32:18;;;;;;;;;50.25;42.00;;;;;14.51;62.21;102031.22;2092561;28;46412;-52
2021/10/10 03:33:18;;;;;;;;;51.50;43.25;;;;;14.51;62.15;102033.91;2092215;28;47249;-48
2021/10/10 03:34:19;;;;;;;;;51.25;41.25;;;;;14.51;62.21;102040.13;2092545;28;48364;-50
2021/10/10 03:35:19;;;;;;;;;52.00;40.50;;;;;14.50;62.10;102032.13;2092077;28;48054;-49
2021/10/10 03:36:20;;;;;;;;;50.25;42.50;;;;;14.50;62.47;102033.03;2092423;28;47487;-50
2021/10/10 03:37:20;;;;;;;;;48.50;39.50;;;;;14.49;62.37;102033.94;2092124;28;47668;-47
2021/10/10 03:38:21;;;;;;;;;48.50;39.50;;;;;14.50;62.30;102034.81;2091640;28;47414;-48
2021/10/10 03:39:21;;;;;;;;;46.75;39.25;;;;;14.51;62.28;102041.91;2091624;28;47158;-46
2021/10/10 03:40:22;;;;;;;;;53.25;44.00;;;;;14.51;61.87;102033.91;2091790;28;48008;-49
2021/10/10 03:41:22;;;;;;;;;51.25;43.25;;;;;14.51;62.31;102040.13;2084181;28;48227;-47
2021/10/10 03:42:23;;;;;;;;;50.25;43.00;;;;;14.52;62.11;102043.69;2091857;28;47224;-51
2021/10/10 03:43:24;;;;;;;;;50.00;42.75;;;;;14.52;62.50;102041.88;2090950;28;48065;-47
2021/10/10 03:44:24;;;;;;;;;50.75;41.00;;;;;14.52;61.98;102036.53;2091960;27;47345;-46
2021/10/10 03:45:25;;;;;;;;;50.50;42.00;;;;;14.51;62.09;102032.13;2095637;28;48182;-47
2021/10/10 03:46:25;;;;;;;;;47.75;39.25;;;;;14.51;61.89;102037.44;2091655;28;47190;-48
2021/10/10 03:47:26;;;;;;;;;47.75;40.75;;;;;14.52;61.96;102036.53;2091667;28;47411;-48
2021/10/10 03:48:26;;;;;;;;;50.50;41.25;;;;;14.52;62.21;102041.00;2091652;28;48023;-50
2021/10/10 03:49:27;;;;;;;;;48.50;40.50;;;;;14.51;62.09;102031.22;2084148;28;47098;-47
2021/10/10 03:50:27;;;;;;;;;49.75;40.75;;;;;14.51;62.31;102032.13;2090136;28;47366;-48
2021/10/10 03:51:28;;;;;;;;;52.25;43.25;;;;;14.52;61.94;102024.97;2092048;28;48143;-50
2021/10/10 03:52:28;;;;;;;;;54.25;42.75;;;;;14.52;62.26;102030.31;2092457;28;47127;-49
2021/10/10 03:55:59;;;;;;;;;47.80;40.00;;;;;14.49;61.99;102025.91;2092190;28;47216;-49
2021/10/10 03:56:59;;;;;;;;;52.00;40.75;;;;;14.49;61.92;102035.72;2092261;28;47165;-51
2021/10/10 03:58:00;;;;;;;;;46.50;38.75;;;;;14.48;62.37;102036.59;2092150;28;47435;-49
2021/10/10 03:59:01;;;;;;;;;49.60;40.40;;;;;14.48;61.87;102033.94;2092461;28;47312;-50
2021/10/10 04:00:06;;;;;;;;;51.00;41.25;;;;;14.47;61.97;102034.84;2092037;28;48337;-50
2021/10/10 04:01:07;;;;;;;;;51.00;41.40;;;;;14.46;61.87;102035.75;2091530;28;46984;-50
2021/10/10 04:02:08;;;;;;;;;51.00;42.25;;;;;14.46;62.49;102033.97;2091772;28;47404;-48
2021/10/10 04:03:10;;;;;;;;;51.00;42.00;;;;;14.46;62.05;102035.75;2092029;28;47784;-52
2021/10/10 04:04:10;;;;;;;;;52.40;41.60;;;;;14.47;61.98;102040.19;2092368;28;46443;-50
2021/10/10 04:06:21;;;;;;;;;52.00;42.20;;;;;14.46;62.04;102046.44;2092058;28;47411;-48
2021/10/10 04:07:22;;;;;;;;;49.50;41.25;;;;;14.45;61.84;102042.00;2092197;28;48083;-48
2021/10/10 04:08:22;;;;;;;;;48.40;40.60;;;;;14.43;62.36;102032.19;2092235;28;47389;-50
2021/10/10 04:09:23;;;;;;;;;53.25;44.75;;;;;14.43;62.17;102037.53;2092047;28;48015;-50
2021/10/10 04:10:24;;;;;;;;;47.50;39.00;;;;;14.42;62.20;102038.44;2092450;28;47205;-48
2021/10/10 04:11:24;;;;;;;;;48.25;41.00;;;;;14.42;62.09;102038.44;2092318;28;47154;-49
2021/10/10 04:12:25;;;;;;;;;51.50;43.25;;;;;14.43;62.14;102033.97;2098779;28;45312;-47
2021/10/10 04:13:25;;;;;;;;;55.00;43.75;;;;;14.42;62.01;102033.09;2088764;28;47171;-49
2021/10/10 04:14:26;;;;;;;;;49.00;41.75;;;;;14.42;62.11;102032.22;2091629;28;48128;-49
2021/10/10 04:15:26;;;;;;;;;54.25;43.50;;;;;14.42;62.12;102035.78;2099728;27;47366;-50
2021/10/10 04:16:27;;;;;;;;;49.50;41.75;;;;;14.43;62.35;102033.97;2087407;28;47120;-51
2021/10/10 04:17:27;;;;;;;;;47.50;40.25;;;;;14.43;62.28;102029.53;2092053;28;45156;-47
2021/10/10 04:18:28;;;;;;;;;46.50;39.50;;;;;14.43;61.94;102037.53;2092221;28;47420;-51
2021/10/10 04:19:28;;;;;;;;;49.25;42.00;;;;;14.43;62.27;102040.22;2092087;28;46076;-51
2021/10/10 04:20:29;;;;;;;;;53.75;44.25;;;;;14.43;62.27;102032.19;2092288;28;47906;-48
2021/10/10 04:21:29;;;;;;;;;51.25;40.75;;;;;14.44;61.98;102038.44;2091929;28;45621;-50
2021/10/10 04:22:30;;;;;;;;;53.25;44.25;;;;;14.45;62.07;102039.31;2092226;28;48163;-51
2021/10/10 04:23:32;;;;;;;;;51.25;43.00;;;;;14.43;62.10;102037.53;2091861;28;47185;-49
2021/10/10 04:24:33;;;;;;;;;52.60;44.60;;;;;14.43;62.24;102029.53;2092187;28;47474;-51
2021/10/10 04:25:34;;;;;;;;;50.20;41.60;;;;;14.43;62.38;102040.22;2092049;28;47284;-50
2021/10/10 04:26:34;;;;;;;;;51.75;43.75;;;;;14.43;62.27;102036.66;2092066;28;47070;-51
2021/10/10 04:27:36;;;;;;;;;48.25;40.00;;;;;14.43;61.98;102040.22;2091098;28;47458;-50
2021/10/10 04:28:36;;;;;;;;;55.60;44.80;;;;;14.43;62.10;102042.00;2083374;28;47552;-49
2021/10/10 04:29:37;;;;;;;;;51.25;42.00;;;;;14.42;62.19;102041.13;2091117;28;47539;-50
2021/10/10 04:30:37;;;;;;;;;51.25;44.00;;;;;14.42;62.41;102040.22;2091969;28;48204;-49
2021/10/10 04:31:38;;;;;;;;;50.00;41.50;;;;;14.42;62.52;102046.47;2091625;28;47403;-51
2021/10/10 04:32:40;;;;;;;;;51.00;42.50;;;;;14.42;62.41;102045.56;2092167;28;46324;-50
2021/10/10 04:33:40;;;;;;;;;50.20;40.00;;;;;14.43;62.08;102050.00;2091343;28;48284;-48
2021/10/10 04:34:41;;;;;;;;;49.75;40.25;;;;;14.42;62.20;102040.22;2091416;28;48034;-49
2021/10/10 04:35:43;;;;;;;;;46.75;38.00;;;;;14.42;61.98;102034.91;2088336;28;48045;-46
2021/10/10 04:36:44;;;;;;;;;52.40;43.80;;;;;14.41;62.15;102039.34;2091885;28;47433;-49
2021/10/10 04:37:44;;;;;;;;;53.50;42.75;;;;;14.41;61.97;102041.16;2091536;28;47315;-48
2021/10/10 04:38:45;;;;;;;;;52.00;42.00;;;;;14.40;62.30;102042.94;2091876;28;47298;-50
2021/10/10 04:39:46;;;;;;;;;51.75;43.25;;;;;14.39;61.98;102041.19;2091800;28;47457;-50